Clover, Minnesota
Current Conditions -  °F | °C
As of 6:35 AM on Tuesday 27 Jan 2015 (Local Time) from KFSE Reporting Station
Haze Haze  
Wind Chill: 15°   Ceiling: 200
Heat Index: 21°   Visibility: 1mi
Dew Point: 21°   Wind: 5mph
Humidity: 100%   Direction: 140°SE
Pressure: 30.06"   Gusts: NA
Location:  47.6306°N, 95.3701°W
Report Text: KFSE 271235Z AUTO 14004KT 1SM BR OVC002 M06/M06 A3006 RMK AO2
Loading
Personal Weather Stations






























Interactive Weather Map New forecast layout! Learn more

10-Day Weather Forecast

Advertisements
Track Severe Weather on mobile